Wetterdaten: Woche 12.03.07 - 18.03.07 (KW11)
Datum Zeit Temperatur Luftfeuchte Luftdruck Niederschlag Windrichtung Wind
12.03.2007 00:00 1,7 C 64 % 1030 hPa 0,0 l/m - - 0,0 km/h (0 Bft)
12.03.2007 01:00 0,9 C 68 % 1029 hPa 0,0 l/m - - 0,0 km/h (0 Bft)
12.03.2007 02:00 0,4 C 72 % 1029 hPa 0,0 l/m - - 0,0 km/h (0 Bft)
12.03.2007 03:00 -0,2 C 75 % 1028 hPa 0,0 l/m - - 0,0 km/h (0 Bft)
12.03.2007 04:00 -0,8 C 77 % 1028 hPa 0,0 l/m - - 0,0 km/h (0 Bft)
12.03.2007 05:00 -1,6 C 80 % 1028 hPa 0,0 l/m - - 0,0 km/h (0 Bft)
12.03.2007 06:00 -1,7 C 84 % 1027 hPa 0,0 l/m - - 0,0 km/h (0 Bft)
12.03.2007 07:00 -1,4 C 86 % 1028 hPa 0,0 l/m - - 0,0 km/h (0 Bft)
12.03.2007 08:00 0,2 C 84 % 1028 hPa 0,0 l/m - - 0,0 km/h (0 Bft)
12.03.2007 09:00 2,8 C 72 % 1028 hPa 0,0 l/m - - 0,0 km/h (0 Bft)
12.03.2007 10:00 6,0 C 55 % 1028 hPa 0,0 l/m - - 0,0 km/h (0 Bft)
12.03.2007 11:00 7,5 C 50 % 1028 hPa 0,0 l/m - - 0,0 km/h (0 Bft)
12.03.2007 12:00 9,0 C 48 % 1027 hPa 0,0 l/m - - 0,0 km/h (0 Bft)
12.03.2007 13:00 11,3 C 42 % 1027 hPa 0,0 l/m - - 0,0 km/h (0 Bft)
12.03.2007 14:00 12,5 C 38 % 1026 hPa 0,0 l/m - - 0,0 km/h (0 Bft)
12.03.2007 15:00 12,6 C 38 % 1026 hPa 0,0 l/m - - 0,0 km/h (0 Bft)
12.03.2007 16:00 12,4 C 39 % 1026 hPa 0,0 l/m - - 0,0 km/h (0 Bft)
12.03.2007 17:00 12,1 C 40 % 1025 hPa 0,0 l/m - - 0,0 km/h (0 Bft)
12.03.2007 18:00 9,7 C 48 % 1026 hPa 0,0 l/m - - 0,0 km/h (0 Bft)
12.03.2007 19:00 6,9 C 57 % 1026 hPa 0,0 l/m - - 0,0 km/h (0 Bft)
12.03.2007 20:00 4,9 C 66 % 1026 hPa 0,0 l/m - - 0,0 km/h (0 Bft)
12.03.2007 21:00 3,6 C 72 % 1026 hPa 0,0 l/m - - 0,0 km/h (0 Bft)
12.03.2007 22:00 2,2 C 77 % 1027 hPa 0,0 l/m - - 0,0 km/h (0 Bft)
12.03.2007 23:00 1,2 C 81 % 1027 hPa 0,0 l/m - - 0,0 km/h (0 Bft)
13.03.2007 00:00 0,3 C 85 % 1027 hPa 0,0 l/m - - 0,0 km/h (0 Bft)
13.03.2007 01:00 -0,3 C 87 % 1027 hPa 0,0 l/m - - 0,0 km/h (0 Bft)
13.03.2007 02:00 -0,9 C 89 % 1027 hPa 0,0 l/m - - 0,0 km/h (0 Bft)
13.03.2007 03:00 -1,2 C 91 % 1027 hPa 0,0 l/m - - 0,0 km/h (0 Bft)
13.03.2007 04:00 -1,6 C 92 % 1027 hPa 0,0 l/m - - 0,0 km/h (0 Bft)
13.03.2007 05:00 -1,9 C 93 % 1027 hPa 0,0 l/m - - 0,0 km/h (0 Bft)
13.03.2007 06:00 -2,2 C 93 % 1027 hPa 0,0 l/m - - 0,0 km/h (0 Bft)
13.03.2007 07:00 -2,0 C 95 % 1028 hPa 0,0 l/m - - 0,0 km/h (0 Bft)
13.03.2007 08:00 -0,5 C 96 % 1028 hPa 0,0 l/m - - 0,0 km/h (0 Bft)
13.03.2007 09:00 3,5 C 95 % 1028 hPa 0,0 l/m - - 0,0 km/h (0 Bft)
13.03.2007 10:00 8,9 C 66 % 1028 hPa 0,0 l/m - - 0,0 km/h (0 Bft)
13.03.2007 11:00 11,1 C 50 % 1028 hPa 0,0 l/m - - 0,0 km/h (0 Bft)
13.03.2007 12:00 13,3 C 43 % 1028 hPa 0,0 l/m - - 0,0 km/h (0 Bft)
13.03.2007 13:00 15,6 C 36 % 1028 hPa 0,0 l/m - - 0,0 km/h (0 Bft)
13.03.2007 14:00 16,9 C 32 % 1028 hPa 0,0 l/m - - 0,0 km/h (0 Bft)
13.03.2007 15:00 16,7 C 32 % 1028 hPa 0,0 l/m - - 0,0 km/h (0 Bft)
13.03.2007 16:00 16,0 C 36 % 1027 hPa 0,0 l/m - - 0,0 km/h (0 Bft)
13.03.2007 17:00 14,7 C 42 % 1028 hPa 0,0 l/m - - 0,0 km/h (0 Bft)
13.03.2007 18:00 12,5 C 46 % 1028 hPa 0,0 l/m - - 0,0 km/h (0 Bft)
13.03.2007 19:00 10,0 C 52 % 1029 hPa 0,0 l/m - - 0,0 km/h (0 Bft)
13.03.2007 20:00 7,8 C 60 % 1029 hPa 0,0 l/m - - 0,0 km/h (0 Bft)
13.03.2007 21:00 6,4 C 68 % 1030 hPa 0,0 l/m - - 0,0 km/h (0 Bft)
13.03.2007 22:00 5,9 C 70 % 1030 hPa 0,0 l/m - - 0,0 km/h (0 Bft)
13.03.2007 23:00 5,0 C 71 % 1030 hPa 0,0 l/m - - 0,0 km/h (0 Bft)
14.03.2007 00:00 3,8 C 74 % 1031 hPa 0,0 l/m - - 0,0 km/h (0 Bft)
14.03.2007 01:00 2,7 C 77 % 1031 hPa 0,0 l/m - - 0,0 km/h (0 Bft)
14.03.2007 02:00 1,9 C 81 % 1031 hPa 0,0 l/m - - 0,0 km/h (0 Bft)
14.03.2007 03:00 1,3 C 84 % 1031 hPa 0,0 l/m - - 0,0 km/h (0 Bft)
14.03.2007 04:00 0,9 C 86 % 1031 hPa 0,0 l/m - - 0,0 km/h (0 Bft)
14.03.2007 05:00 0,8 C 88 % 1031 hPa 0,0 l/m - - 0,0 km/h (0 Bft)
14.03.2007 06:00 0,4 C 89 % 1031 hPa 0,0 l/m - - 0,0 km/h (0 Bft)
14.03.2007 07:00 0,5 C 90 % 1031 hPa 0,0 l/m - - 0,0 km/h (0 Bft)
14.03.2007 08:00 2,4 C 93 % 1032 hPa 0,0 l/m - - 0,0 km/h (0 Bft)
14.03.2007 09:00 7,3 C 76 % 1032 hPa 0,0 l/m - - 0,0 km/h (0 Bft)
14.03.2007 10:00 11,4 C 50 % 1032 hPa 0,0 l/m - - 0,0 km/h (0 Bft)
14.03.2007 11:00 12,8 C 42 % 1032 hPa 0,0 l/m - - 0,0 km/h (0 Bft)
14.03.2007 12:00 13,8 C 39 % 1032 hPa 0,0 l/m - - 0,0 km/h (0 Bft)
14.03.2007 13:00 14,9 C 36 % 1031 hPa 0,0 l/m - - 0,0 km/h (0 Bft)
14.03.2007 14:00 15,4 C 36 % 1031 hPa 0,0 l/m - - 0,0 km/h (0 Bft)
14.03.2007 15:00 14,9 C 36 % 1030 hPa 0,0 l/m - - 0,0 km/h (0 Bft)
14.03.2007 16:00 14,4 C 36 % 1030 hPa 0,0 l/m - - 0,0 km/h (0 Bft)
14.03.2007 17:00 13,5 C 40 % 1031 hPa 0,0 l/m - - 0,0 km/h (0 Bft)
14.03.2007 18:00 11,7 C 48 % 1031 hPa 0,0 l/m - - 0,0 km/h (0 Bft)
14.03.2007 19:00 10,1 C 55 % 1031 hPa 0,0 l/m - - 0,0 km/h (0 Bft)
14.03.2007 20:00 8,6 C 63 % 1031 hPa 0,0 l/m - - 0,0 km/h (0 Bft)
14.03.2007 21:00 7,6 C 69 % 1031 hPa 0,0 l/m - - 0,0 km/h (0 Bft)
14.03.2007 22:00 6,9 C 74 % 1031 hPa 0,0 l/m - - 0,0 km/h (0 Bft)
14.03.2007 23:00 6,0 C 77 % 1031 hPa 0,0 l/m - - 0,0 km/h (0 Bft)
15.03.2007 00:00 5,0 C 83 % 1031 hPa 0,0 l/m - - 0,0 km/h (0 Bft)
15.03.2007 01:00 4,3 C 86 % 1031 hPa 0,0 l/m - - 0,0 km/h (0 Bft)
15.03.2007 02:00 3,6 C 89 % 1031 hPa 0,0 l/m - - 0,0 km/h (0 Bft)
15.03.2007 03:00 3,2 C 91 % 1030 hPa 0,0 l/m - - 0,0 km/h (0 Bft)
15.03.2007 04:00 2,8 C 94 % 1030 hPa 0,0 l/m - - 0,0 km/h (0 Bft)
15.03.2007 05:00 2,5 C 96 % 1029 hPa 0,0 l/m - - 0,0 km/h (0 Bft)
15.03.2007 06:00 2,3 C 96 % 1029 hPa 0,0 l/m - - 0,0 km/h (0 Bft)
15.03.2007 07:00 2,3 C 97 % 1029 hPa 0,0 l/m - - 0,0 km/h (0 Bft)
15.03.2007 08:00 3,4 C 98 % 1029 hPa 0,0 l/m - - 0,0 km/h (0 Bft)
15.03.2007 09:00 6,0 C 90 % 1030 hPa 0,0 l/m - - 0,0 km/h (0 Bft)
15.03.2007 10:00 8,6 C 72 % 1029 hPa 0,0 l/m - - 0,0 km/h (0 Bft)
15.03.2007 11:00 10,3 C 62 % 1029 hPa 0,0 l/m - - 0,0 km/h (0 Bft)
15.03.2007 12:00 12,2 C 49 % 1028 hPa 0,0 l/m - - 0,0 km/h (0 Bft)
15.03.2007 13:00 13,8 C 45 % 1028 hPa 0,0 l/m - - 0,0 km/h (0 Bft)
15.03.2007 14:00 14,8 C 41 % 1027 hPa 0,0 l/m - - 0,0 km/h (0 Bft)
15.03.2007 15:00 14,7 C 40 % 1026 hPa 0,0 l/m - - 0,0 km/h (0 Bft)
15.03.2007 16:00 14,4 C 42 % 1026 hPa 0,0 l/m - - 0,0 km/h (0 Bft)
15.03.2007 17:00 13,8 C 45 % 1026 hPa 0,0 l/m - - 0,0 km/h (0 Bft)
15.03.2007 18:00 11,9 C 50 % 1026 hPa 0,0 l/m - - 0,0 km/h (0 Bft)
15.03.2007 19:00 9,1 C 60 % 1026 hPa 0,0 l/m - - 0,0 km/h (0 Bft)
15.03.2007 20:00 7,2 C 69 % 1026 hPa 0,0 l/m - - 0,0 km/h (0 Bft)
15.03.2007 21:00 5,9 C 75 % 1026 hPa 0,0 l/m - - 0,0 km/h (0 Bft)
15.03.2007 22:00 4,8 C 79 % 1026 hPa 0,0 l/m - - 0,0 km/h (0 Bft)
15.03.2007 23:00 3,8 C 82 % 1026 hPa 0,0 l/m - - 0,0 km/h (0 Bft)
16.03.2007 00:00 3,0 C 85 % 1026 hPa 0,0 l/m - - 0,0 km/h (0 Bft)
16.03.2007 01:00 2,4 C 87 % 1026 hPa 0,0 l/m - - 0,0 km/h (0 Bft)
16.03.2007 02:00 1,7 C 89 % 1026 hPa 0,0 l/m - - 0,0 km/h (0 Bft)
16.03.2007 03:00 1,1 C 91 % 1025 hPa 0,0 l/m - - 0,0 km/h (0 Bft)
16.03.2007 04:00 0,8 C 93 % 1025 hPa 0,0 l/m - - 0,0 km/h (0 Bft)
16.03.2007 05:00 0,2 C 93 % 1025 hPa 0,0 l/m - - 0,0 km/h (0 Bft)
16.03.2007 06:00 -0,3 C 93 % 1026 hPa 0,0 l/m - - 0,0 km/h (0 Bft)
16.03.2007 07:00 -0,2 C 94 % 1026 hPa 0,0 l/m - - 0,0 km/h (0 Bft)
16.03.2007 08:00 1,5 C 97 % 1026 hPa 0,0 l/m - - 0,0 km/h (0 Bft)
16.03.2007 09:00 4,1 C 97 % 1026 hPa 0,0 l/m - - 0,0 km/h (0 Bft)
16.03.2007 10:00 8,4 C 84 % 1026 hPa 0,0 l/m - - 0,0 km/h (0 Bft)
16.03.2007 11:00 11,1 C 58 % 1026 hPa 0,0 l/m - - 0,0 km/h (0 Bft)
16.03.2007 12:00 12,9 C 48 % 1026 hPa 0,0 l/m - - 0,0 km/h (0 Bft)
16.03.2007 13:00 14,7 C 44 % 1026 hPa 0,0 l/m - - 0,0 km/h (0 Bft)
16.03.2007 14:00 15,2 C 40 % 1025 hPa 0,0 l/m - - 0,0 km/h (0 Bft)
16.03.2007 15:00 15,3 C 37 % 1024 hPa 0,0 l/m - - 0,0 km/h (0 Bft)
16.03.2007 16:00 15,0 C 38 % 1024 hPa 0,0 l/m - - 0,0 km/h (0 Bft)
16.03.2007 17:00 14,1 C 42 % 1024 hPa 0,0 l/m - - 0,0 km/h (0 Bft)
16.03.2007 18:00 11,9 C 50 % 1024 hPa 0,0 l/m - - 0,0 km/h (0 Bft)
16.03.2007 19:00 10,1 C 57 % 1024 hPa 0,0 l/m - - 0,0 km/h (0 Bft)
16.03.2007 20:00 8,6 C 62 % 1025 hPa 0,0 l/m - - 0,0 km/h (0 Bft)
16.03.2007 21:00 7,6 C 65 % 1025 hPa 0,0 l/m - - 0,0 km/h (0 Bft)
16.03.2007 22:00 7,0 C 70 % 1025 hPa 0,0 l/m - - 0,0 km/h (0 Bft)
16.03.2007 23:00 5,4 C 74 % 1025 hPa 0,0 l/m - - 0,0 km/h (0 Bft)
17.03.2007 00:00 4,3 C 79 % 1025 hPa 0,0 l/m - - 0,0 km/h (0 Bft)
17.03.2007 01:00 4,2 C 82 % 1025 hPa 0,0 l/m - - 0,0 km/h (0 Bft)
17.03.2007 02:00 3,4 C 85 % 1025 hPa 0,0 l/m - - 0,0 km/h (0 Bft)
17.03.2007 03:00 2,8 C 88 % 1024 hPa 0,0 l/m - - 0,0 km/h (0 Bft)
17.03.2007 04:00 2,2 C 89 % 1024 hPa 0,0 l/m - - 0,0 km/h (0 Bft)
17.03.2007 05:00 1,6 C 91 % 1024 hPa 0,0 l/m - - 0,0 km/h (0 Bft)
17.03.2007 06:00 1,9 C 94 % 1024 hPa 0,0 l/m - - 0,0 km/h (0 Bft)
17.03.2007 07:00 3,1 C 90 % 1024 hPa 0,0 l/m - - 0,0 km/h (0 Bft)
17.03.2007 08:00 5,1 C 80 % 1025 hPa 0,0 l/m - - 0,0 km/h (0 Bft)
17.03.2007 09:00 7,1 C 65 % 1025 hPa 0,0 l/m - - 0,0 km/h (0 Bft)
17.03.2007 10:00 8,3 C 57 % 1025 hPa 0,0 l/m - - 0,0 km/h (0 Bft)
17.03.2007 11:00 8,9 C 53 % 1025 hPa 0,0 l/m - - 0,0 km/h (0 Bft)
17.03.2007 12:00 8,6 C 52 % 1025 hPa 0,0 l/m - - 0,0 km/h (0 Bft)
17.03.2007 13:00 8,2 C 54 % 1025 hPa 0,0 l/m - - 0,0 km/h (0 Bft)
17.03.2007 14:00 8,6 C 53 % 1025 hPa 0,0 l/m - - 0,0 km/h (0 Bft)
17.03.2007 15:00 9,1 C 48 % 1024 hPa 0,0 l/m - - 0,0 km/h (0 Bft)
17.03.2007 16:00 8,9 C 49 % 1024 hPa 0,0 l/m - - 0,0 km/h (0 Bft)
17.03.2007 17:00 8,7 C 51 % 1024 hPa 0,0 l/m - - 0,0 km/h (0 Bft)
17.03.2007 18:00 8,3 C 53 % 1024 hPa 0,0 l/m - - 0,0 km/h (0 Bft)
17.03.2007 19:00 7,9 C 56 % 1024 hPa 0,0 l/m - - 0,0 km/h (0 Bft)
17.03.2007 20:00 7,4 C 59 % 1024 hPa 0,0 l/m - - 0,0 km/h (0 Bft)
17.03.2007 21:00 6,7 C 65 % 1024 hPa 0,0 l/m - - 0,0 km/h (0 Bft)
17.03.2007 22:00 6,5 C 68 % 1024 hPa 0,0 l/m - - 0,0 km/h (0 Bft)
17.03.2007 23:00 6,2 C 71 % 1023 hPa 0,0 l/m - - 0,0 km/h (0 Bft)
18.03.2007 00:00 5,9 C 72 % 1023 hPa 0,0 l/m - - 0,0 km/h (0 Bft)
18.03.2007 01:00 5,4 C 75 % 1022 hPa 0,0 l/m - - 0,0 km/h (0 Bft)
18.03.2007 02:00 4,7 C 79 % 1021 hPa 0,0 l/m - - 0,0 km/h (0 Bft)
18.03.2007 03:00 4,9 C 81 % 1020 hPa 0,0 l/m - - 0,0 km/h (0 Bft)
18.03.2007 04:00 4,8 C 81 % 1019 hPa 0,0 l/m - - 0,0 km/h (0 Bft)
18.03.2007 05:00 4,7 C 84 % 1018 hPa 0,0 l/m - - 0,0 km/h (0 Bft)
18.03.2007 06:00 5,7 C 77 % 1017 hPa 0,0 l/m - - 0,0 km/h (0 Bft)
18.03.2007 07:00 5,9 C 76 % 1016 hPa 0,0 l/m - - 0,0 km/h (0 Bft)
18.03.2007 08:00 6,2 C 74 % 1015 hPa 0,0 l/m - - 0,0 km/h (0 Bft)
18.03.2007 09:00 7,2 C 65 % 1015 hPa 0,0 l/m - - 0,0 km/h (0 Bft)
18.03.2007 10:00 7,8 C 59 % 1014 hPa 0,0 l/m - - 0,0 km/h (0 Bft)
18.03.2007 11:00 8,4 C 60 % 1012 hPa 0,0 l/m - - 0,0 km/h (0 Bft)
18.03.2007 12:00 9,4 C 56 % 1010 hPa 0,0 l/m - - 0,0 km/h (0 Bft)
18.03.2007 13:00 10,5 C 53 % 1009 hPa 0,0 l/m - - 0,0 km/h (0 Bft)
18.03.2007 14:00 11,1 C 51 % 1008 hPa 0,0 l/m - - 0,0 km/h (0 Bft)
18.03.2007 15:00 10,5 C 48 % 1007 hPa 0,0 l/m - - 0,0 km/h (0 Bft)
18.03.2007 16:00 10,1 C 47 % 1005 hPa 0,0 l/m - - 0,0 km/h (0 Bft)
18.03.2007 17:00 9,1 C 58 % 1005 hPa 0,0 l/m - - 0,0 km/h (0 Bft)
18.03.2007 18:00 7,0 C 79 % 1005 hPa 0,0 l/m - - 0,0 km/h (0 Bft)
18.03.2007 19:00 6,5 C 83 % 1004 hPa 0,0 l/m - - 0,0 km/h (0 Bft)
18.03.2007 20:00 6,8 C 80 % 1003 hPa 0,0 l/m - - 0,0 km/h (0 Bft)
18.03.2007 21:00 6,6 C 75 % 1003 hPa 0,0 l/m - - 0,0 km/h (0 Bft)
18.03.2007 22:00 1,6 C 84 % 1003 hPa 0,0 l/m - - 0,0 km/h (0 Bft)
18.03.2007 23:00 1,0 C 89 % 1003 hPa 0,0 l/m - - 0,0 km/h (0 Bft)
Min-Datum _ 13.03.07 13.03.07 18.03.07 - - 12.03.07
_ Min-Zeit 06:44 15:07 20:21 - - 00:00
Minimum _ -2,3 C 26 % 1002 hPa - - 0,0 km/h (0 Bft)
Max-Datum _ 13.03.07 13.03.07 14.03.07 12.03.07 - 12.03.07
_ Max-Zeit 14:45 09:02 08:06 00:00 - 00:00
Maximum _ 17,3 C 98 % 1032 hPa 0,0 l/m - 0,0 km/h
- - (0 Bft)
Durchschnitt _ 6,6 C 68 % 1025 hPa #0,0 l/m - - 0,0 km/h (0 Bft)

Durchschnitt Minimum Temp.6,1 C
Durchschnitt Maximum Temp.7,2 C